Flight Track Log - Related Links

Times and Time Zones

All times are in EDT time to prevent confusion due to time zone crossing. See the N143DE flight status page for this flight to view local times or setup timezone preferences in your user account.

Time Position Orientation Groundspeed Altitude Reporting Facility
EDT Latitude Longitude Course Direction KTS MPH feet Rate Location/Type
Sat 01:54:43 PM 34.3825 -89.8639 173° South 260 299 2,200  Level Memphis Center
Sat 01:55:43 PM 34.3325 -89.8567 173° South 171 197 4,200 1,700 Climbing Memphis Center
Sat 01:56:43 PM 34.2803 -89.8544 178° South 182 209 5,600 1,600 Climbing Memphis Center
Sat 01:57:43 PM 34.2569 -89.7942 115° Southeast 169 194 7,400 2,000 Climbing Memphis Center
Sat 01:58:43 PM 34.2544 -89.7289 93° East 176 203 9,600 2,050 Climbing Memphis Center
Sat 01:59:43 PM 34.2522 -89.6611 92° East 198 228 11,500 1,900 Climbing Memphis Center
Sat 02:00:43 PM 34.2475 -89.5908 95° East 203 234 13,400 1,800 Climbing Memphis Center
Sat 02:01:43 PM 34.2469 -89.5203 91° East 208 239 15,100 1,600 Climbing Memphis Center
Sat 02:02:43 PM 34.2403 -89.4500 97° East 208 239 16,600 3,950 Climbing Memphis Center
Sat 02:03:43 PM 34.2378 -89.3772 92° East 213 245 23,000 1,300 Climbing Memphis Center
Sat 02:04:43 PM 34.2308 -89.3069 97° East 213 245 19,200 -1,400 Descending Memphis Center
Sat 02:05:43 PM 34.2258 -89.2292 94° East 219 252 20,200 950 Climbing Memphis Center
Sat 02:06:43 PM 34.2211 -89.1614 95° East 226 260 21,100 950 Climbing Memphis Center
Sat 02:07:43 PM 34.2161 -89.0786 94° East 236 272 22,100 900 Climbing Memphis Center
Sat 02:08:43 PM 34.2111 -88.9958 94° East 241 277 22,900 500 Climbing Memphis Center
Sat 02:09:43 PM 34.2017 -88.9031 97° East 260 299 23,100 100 Climbing Memphis Center
Sat 02:10:43 PM 34.1942 -88.8003 95° East 286 329 23,100 -50 Level Memphis Center
Sat 02:11:43 PM 34.1886 -88.6950 94° East 306 352 23,000 -50 Descending Memphis Center
Sat 02:12:43 PM 34.1828 -88.5819 94° East 318 366 23,000  Level Memphis Center
Sat 02:13:43 PM 34.1750 -88.4742 95° East 325 374 23,000  Level Memphis Center
Sat 02:14:43 PM 34.1669 -88.3614 95° East 330 380 23,000  Level Memphis Center
Sat 02:15:43 PM 34.1569 -88.2511 96° East 330 380 23,000  Level Memphis Center
Sat 02:16:43 PM 34.1506 -88.1258 93° East 337 388 23,000  Level Memphis Center
Sat 02:17:43 PM 34.1403 -88.0183 97° East 337 388 23,000  Level Memphis Center
Sat 02:18:43 PM 34.1319 -87.9106 95° East 327 376 23,000  Level Memphis Center
Sat 02:19:43 PM 34.1214 -87.8006 97° East 327 376 23,000  Level Memphis Center
Sat 02:22:07 PM 34.0992 -87.5408 96° East 344 396 23,000  Level Atlanta Center
Sat 02:23:07 PM 34.0919 -87.4275 94° East 338 389 23,000  Level Atlanta Center
Sat 02:24:07 PM 34.0844 -87.3194 95° East 332 382 23,000  Level Atlanta Center
Sat 02:25:07 PM 34.0728 -87.2086 97° East 332 382 23,000  Level Atlanta Center
Sat 02:26:07 PM 34.0631 -87.0981 96° East 332 382 23,000  Level Atlanta Center
Sat 02:27:07 PM 34.0553 -86.9850 95° East 332 382 23,000  Level Atlanta Center
Sat 02:28:07 PM 34.0456 -86.8767 96° East 332 382 23,000  Level Atlanta Center
Sat 02:29:07 PM 34.0375 -86.7661 95° East 332 382 23,000 -150 Level Atlanta Center
Sat 02:30:07 PM 34.0272 -86.6581 97° East 332 382 22,700 -750 Descending Atlanta Center
Sat 02:31:07 PM 34.0150 -86.5425 97° East 332 382 21,500 -1,350 Descending Atlanta Center
Sat 02:32:07 PM 34.0050 -86.4219 96° East 343 395 20,000 -1,600 Descending Atlanta Center
Sat 02:33:07 PM 33.9947 -86.3064 96° East 348 400 18,300 -1,250 Descending Atlanta Center
Sat 02:34:07 PM 33.9842 -86.1908 96° East 348 400 17,500 2,350 Descending Atlanta Center
Sat 02:35:07 PM 33.9736 -86.0778 96° East 348 400 23,000 2,750 Climbing Atlanta Center
Sat 02:36:07 PM 33.9711 -85.9675 92° East 338 389 23,000  Level Atlanta Center
Sat 02:37:07 PM 33.9706 -85.8672 90° East 317 365 23,000 -6,000 Level Atlanta Center
Sat 02:38:07 PM 33.9739 -85.7822 87° East 293 337 11,000 -6,000 Descending Atlanta Center
Sat 02:39:07 PM 33.9731 -85.6944 91° East 262 302 11,000  Level Atlanta Center
Sat 02:40:07 PM 33.9722 -85.6094 91° East 251 289 11,000  Level Atlanta Center
Sat 02:41:07 PM 33.9692 -85.5142 92° East 256 295 11,000  Level Atlanta Center
Sat 02:42:07 PM 33.9681 -85.4264 91° East 251 289 11,000 -350 Level Atlanta Center
Sat 02:43:07 PM 33.9628 -85.3361 94° East 256 295 10,300 -859 Descending Atlanta Center
Sat 02:45:00 PM 33.9500 -85.1299 90° East  Level FlightAware Approximate
Sat 02:49:48 PM 34.0333 -84.7500 90° East 228 262 4,400  Level Atlanta TRACON
Sat 02:50:48 PM 34.0500 -84.6833 73° East 183 211 3,900 -550 Descending Atlanta TRACON
Sat 02:51:48 PM 34.0500 -84.6333 90° East 168 193 3,300 -762 Descending Atlanta TRACON
Sat 02:52:00 PM 34.0132 -84.5971 90° East  Level Estimated
Sat 02:52:54 PM 34.0500 -84.5833 90° East 158 182 2,300  Level Atlanta TRACON
Sat 02:53:00 PM 34.0132 -84.5971 90° East  Level Estimated
Sat 02:53:54 PM 34.0167 -84.5667 157° South 131 151 1,700  Level Atlanta TRACON
Sat 02:54:00 PM 34.0132 -84.5971 90° East  Level Estimated
Sat 02:54:54 PM 33.9833 -84.5667 180° South 128 147 1,700  Level Atlanta TRACON
Sat 02:55:00 PM 34.0132 -84.5971 90° East  Level Estimated

Login

Don't have an account? Register now (free) for customized features, flight alerts, and more!